Time;durP1;ratioP1;P1;durP2;ratioP2;P2;SDS_P1;SDS_P2;PMS_P1;PMS_P2;Temp;Humidity;BMP_temperature;BMP_pressure;BME280_temperature;BME280_humidity;BME280_pressure;Samples;Min_cycle;Max_cycle;Signal;HPM_P1;HPM_P2
2021/07/22 00:01:12;;;;;;;2.10;1.38;;;15.90;99.90;;;;;;4998844;28;20574;-71
2021/07/22 00:03:39;;;;;;;1.40;1.27;;;15.90;99.90;;;;;;4982569;28;20471;-66
2021/07/22 00:06:21;;;;;;;1.50;1.38;;;16.00;99.90;;;;;;4982837;28;20078;-67
2021/07/22 00:08:48;;;;;;;1.50;1.40;;;16.00;99.90;;;;;;4999873;28;20065;-66
2021/07/22 00:11:15;;;;;;;2.95;2.35;;;16.00;99.90;;;;;;5001173;28;20042;-69
2021/07/22 00:13:41;;;;;;;2.97;1.25;;;16.00;99.90;;;;;;4996650;28;20049;-71
2021/07/22 00:16:14;;;;;;;2.45;1.98;;;16.00;99.90;;;;;;4994300;28;20049;-70
2021/07/22 00:18:41;;;;;;;3.55;2.40;;;16.00;99.90;;;;;;4997530;28;20060;-70
2021/07/22 00:21:09;;;;;;;3.05;1.65;;;16.00;99.90;;;;;;5001331;28;20512;-68
2021/07/22 00:23:35;;;;;;;2.78;1.80;;;16.00;99.90;;;;;;4994252;28;20127;-68
2021/07/22 00:26:03;;;;;;;2.90;1.65;;;16.00;99.90;;;;;;5003198;28;20589;-66
2021/07/22 00:28:31;;;;;;;4.32;2.60;;;16.00;99.90;;;;;;4998726;28;20046;-68
2021/07/22 00:30:57;;;;;;;2.67;1.67;;;15.90;99.90;;;;;;5003352;28;20476;-66
2021/07/22 00:33:26;;;;;;;3.38;2.47;;;15.90;99.90;;;;;;4999228;28;20179;-70
2021/07/22 00:35:53;;;;;;;2.47;2.03;;;15.90;99.90;;;;;;4952576;28;20053;-66
2021/07/22 00:38:31;;;;;;;2.00;1.65;;;15.90;99.90;;;;;;3387664;28;10022734;-68
2021/07/22 00:40:59;;;;;;;2.53;1.98;;;15.90;99.90;;;;;;2235715;28;10002025;-72
2021/07/22 00:43:27;;;;;;;3.75;2.10;;;15.90;99.90;;;;;;4986957;28;20112;-70
2021/07/22 00:45:54;;;;;;;3.28;2.13;;;15.80;99.90;;;;;;5006254;28;20066;-66
2021/07/22 00:48:21;;;;;;;5.30;1.95;;;15.80;99.90;;;;;;5001242;28;20240;-70
2021/07/22 00:50:48;;;;;;;2.13;1.90;;;15.80;99.90;;;;;;5006585;28;20080;-70
2021/07/22 00:53:15;;;;;;;5.00;2.67;;;15.90;99.90;;;;;;5004485;28;20104;-69
2021/07/22 00:55:45;;;;;;;8.15;4.07;;;15.90;99.90;;;;;;5002442;28;20096;-68
2021/07/22 00:58:13;;;;;;;7.10;3.00;;;16.00;99.90;;;;;;5005567;28;20045;-72
2021/07/22 01:00:41;;;;;;;2.70;2.50;;;16.10;99.90;;;;;;5001218;28;20104;-68
2021/07/22 01:03:08;;;;;;;5.72;3.70;;;16.10;99.90;;;;;;5004908;28;20057;-66
2021/07/22 01:05:36;;;;;;;4.65;3.30;;;16.10;99.90;;;;;;4998992;28;20377;-69
2021/07/22 01:08:03;;;;;;;7.78;3.85;;;16.30;99.90;;;;;;5004236;28;20718;-69
2021/07/22 01:10:31;;;;;;;6.18;3.95;;;16.50;99.90;;;;;;4984118;28;20046;-70
2021/07/22 01:13:00;;;;;;;9.98;4.38;;;16.80;99.90;;;;;;5004783;28;20487;-72
2021/07/22 01:15:31;;;;;;;28.52;4.75;;;17.00;99.90;;;;;;4982313;28;20133;-69
2021/07/22 01:17:59;;;;;;;3.65;3.25;;;17.20;99.90;;;;;;5004932;28;20096;-68
2021/07/22 01:20:28;;;;;;;5.60;3.60;;;17.40;99.90;;;;;;5003385;28;20084;-71
2021/07/22 01:22:58;;;;;;;3.92;3.47;;;17.70;99.90;;;;;;4985662;28;20045;-66
2021/07/22 01:25:36;;;;;;;4.18;3.55;;;17.80;99.90;;;;;;5001298;28;20041;-70
2021/07/22 01:28:04;;;;;;;4.43;4.03;;;18.00;99.90;;;;;;5001726;28;20049;-67
2021/07/22 01:30:31;;;;;;;3.13;2.83;;;18.10;99.90;;;;;;5004685;28;20168;-70
2021/07/22 01:32:59;;;;;;;4.03;3.50;;;18.20;99.90;;;;;;5001202;28;20579;-65
2021/07/22 01:35:26;;;;;;;4.05;3.65;;;18.30;99.90;;;;;;5003258;28;20053;-68
2021/07/22 01:37:56;;;;;;;4.43;3.97;;;18.30;99.90;;;;;;4984466;28;20112;-67
2021/07/22 01:40:23;;;;;;;5.93;3.83;;;18.30;99.90;;;;;;5004437;28;20050;-69
2021/07/22 01:42:51;;;;;;;5.93;2.85;;;18.40;99.90;;;;;;5004140;28;20109;-68
2021/07/22 01:45:21;;;;;;;3.78;2.70;;;18.40;99.90;;;;;;4983868;28;20468;-69
2021/07/22 01:47:48;;;;;;;5.35;3.75;;;18.30;99.90;;;;;;4982203;28;20048;-69
2021/07/22 01:50:17;;;;;;;3.67;2.90;;;18.40;99.90;;;;;;4985718;28;20080;-69
2021/07/22 01:52:44;;;;;;;3.60;2.88;;;18.40;99.90;;;;;;5001536;28;20042;-69
2021/07/22 01:55:11;;;;;;;3.88;3.17;;;18.40;99.90;;;;;;5004084;28;20054;-66
2021/07/22 01:57:47;;;;;;;4.18;2.95;;;18.40;99.90;;;;;;5002023;28;20104;-67
2021/07/22 02:00:17;;;;;;;2.60;2.15;;;18.40;99.90;;;;;;5000928;28;20415;-67
2021/07/22 02:02:44;;;;;;;2.53;1.95;;;18.60;99.90;;;;;;5001540;28;20427;-69
2021/07/22 02:05:18;;;;;;;2.83;2.08;;;18.60;99.90;;;;;;5001315;28;20071;-69
2021/07/22 02:07:46;;;;;;;2.70;2.50;;;18.60;99.90;;;;;;5001227;28;20050;-69
2021/07/22 02:10:14;;;;;;;4.53;2.22;;;18.70;99.90;;;;;;5000703;28;20046;-70
2021/07/22 02:12:42;;;;;;;4.60;3.08;;;18.80;99.90;;;;;;5001572;28;20045;-66
2021/07/22 02:15:13;;;;;;;3.22;2.50;;;18.80;99.90;;;;;;4983006;28;20050;-70
2021/07/22 02:17:41;;;;;;;3.25;1.98;;;18.90;99.90;;;;;;4982249;28;20141;-67
2021/07/22 02:20:08;;;;;;;3.17;1.67;;;19.00;99.90;;;;;;4982523;28;20132;-70
2021/07/22 02:22:36;;;;;;;2.30;2.10;;;18.90;99.90;;;;;;4983422;28;20107;-69
2021/07/22 02:25:38;;;;;;;2.88;1.70;;;18.90;99.90;;;;;;4998284;28;20085;-71
2021/07/22 02:28:07;;;;;;;4.50;2.50;;;19.00;99.90;;;;;;4977008;28;20334;-69
2021/07/22 02:30:35;;;;;;;2.55;2.25;;;19.00;99.90;;;;;;5002114;28;20045;-67
2021/07/22 02:33:01;;;;;;;2.33;1.83;;;19.00;99.90;;;;;;4981034;28;20072;-66
2021/07/22 02:35:29;;;;;;;2.60;2.03;;;19.00;99.90;;;;;;4984893;28;20061;-70
2021/07/22 02:38:14;;;;;;;3.08;2.67;;;18.90;99.90;;;;;;4999189;28;20137;-65
2021/07/22 02:40:42;;;;;;;5.45;2.22;;;18.90;99.90;;;;;;5003476;28;20057;-70
2021/07/22 02:43:11;;;;;;;2.55;1.50;;;19.00;99.90;;;;;;4981576;28;20125;-70
2021/07/22 02:45:39;;;;;;;2.97;1.95;;;18.90;99.90;;;;;;4995914;28;20057;-68
2021/07/22 02:48:08;;;;;;;7.25;3.40;;;18.90;99.90;;;;;;4985287;28;20100;-65
2021/07/22 02:50:36;;;;;;;4.05;1.63;;;19.00;99.90;;;;;;5002019;28;20115;-72
2021/07/22 02:53:07;;;;;;;2.42;1.92;;;19.00;99.90;;;;;;4983225;28;20046;-66
2021/07/22 02:55:47;;;;;;;4.38;2.58;;;19.10;99.90;;;;;;4999791;28;20053;-67
2021/07/22 02:58:14;;;;;;;3.80;2.65;;;19.10;99.90;;;;;;5000715;28;20054;-66
2021/07/22 03:00:43;;;;;;;3.13;2.88;;;19.10;99.90;;;;;;4998867;28;20046;-72
2021/07/22 03:03:13;;;;;;;3.40;1.90;;;19.10;99.90;;;;;;4985503;28;20727;-70
2021/07/22 03:05:41;;;;;;;2.55;2.30;;;19.10;99.90;;;;;;5000327;28;20046;-73
2021/07/22 03:08:09;;;;;;;5.85;2.28;;;19.10;99.90;;;;;;4984449;28;20169;-66
2021/07/22 03:10:36;;;;;;;3.95;2.45;;;19.10;99.90;;;;;;4981898;28;20053;-72
2021/07/22 03:13:04;;;;;;;5.28;3.00;;;19.10;99.90;;;;;;5001311;28;20058;-68
2021/07/22 03:15:33;;;;;;;3.20;2.47;;;19.10;99.90;;;;;;4999271;28;20033;-72
2021/07/22 03:18:06;;;;;;;2.55;1.77;;;19.10;99.90;;;;;;4984954;28;20042;-67
2021/07/22 03:20:33;;;;;;;3.75;2.03;;;19.10;99.90;;;;;;4984371;28;20582;-68
2021/07/22 03:23:02;;;;;;;3.53;2.15;;;19.00;99.90;;;;;;4999693;28;20050;-71
2021/07/22 03:25:37;;;;;;;3.05;2.40;;;19.10;99.90;;;;;;4981194;28;20057;-69
2021/07/22 03:28:24;;;;;;;4.35;2.70;;;19.10;99.90;;;;;;5002043;28;20064;-68
2021/07/22 03:30:56;;;;;;;2.97;2.00;;;19.10;99.90;;;;;;4985729;28;20072;-70
2021/07/22 03:33:41;;;;;;;2.65;1.88;;;19.10;99.90;;;;;;4997153;28;20080;-69
2021/07/22 03:36:15;;;;;;;1.52;1.42;;;19.10;99.90;;;;;;4985415;28;20096;-73
2021/07/22 03:38:47;;;;;;;2.38;1.60;;;19.10;99.90;;;;;;5001133;28;20050;-71
2021/07/22 03:41:33;;;;;;;3.85;2.03;;;19.20;99.90;;;;;;4999298;28;20042;-69
2021/07/22 03:44:22;;;;;;;2.08;1.65;;;19.20;99.90;;;;;;4992832;28;20196;-66
2021/07/22 03:46:49;;;;;;;4.00;2.00;;;19.20;99.90;;;;;;5002932;28;20133;-66
2021/07/22 03:49:21;;;;;;;2.65;2.45;;;19.20;99.90;;;;;;4999110;28;20145;-68
2021/07/22 03:51:57;;;;;;;2.58;1.95;;;19.20;99.90;;;;;;4983118;28;20042;-65
2021/07/22 03:54:35;;;;;;;1.80;1.67;;;19.30;99.90;;;;;;4985343;28;20129;-68
2021/07/22 03:57:02;;;;;;;2.22;2.03;;;19.20;99.90;;;;;;4982471;28;20133;-66
2021/07/22 03:59:30;;;;;;;3.10;1.42;;;19.30;99.90;;;;;;4993548;28;20054;-66
2021/07/22 04:01:57;;;;;;;9.15;2.72;;;19.30;99.90;;;;;;4978173;28;20041;-66
2021/07/22 04:04:29;;;;;;;3.30;2.30;;;19.30;99.90;;;;;;4979914;28;20054;-66
2021/07/22 04:06:57;;;;;;;2.40;1.60;;;19.30;99.90;;;;;;4984506;28;20049;-67
2021/07/22 04:09:54;;;;;;;1.92;1.73;;;19.30;99.90;;;;;;4963882;28;20055;-68
2021/07/22 04:12:33;;;;;;;3.38;1.20;;;19.30;99.90;;;;;;5001885;28;20054;-72
2021/07/22 04:15:03;;;;;;;2.50;1.85;;;19.30;99.90;;;;;;5005218;28;20054;-69
2021/07/22 04:17:51;;;;;;;2.92;1.85;;;19.30;99.90;;;;;;4983282;28;20130;-73
2021/07/22 04:20:36;;;;;;;2.28;1.90;;;19.40;99.90;;;;;;5001845;28;20061;-70
2021/07/22 04:23:03;;;;;;;3.00;2.10;;;19.40;99.90;;;;;;5005058;28;20462;-66
2021/07/22 04:25:41;;;;;;;3.60;2.40;;;19.40;99.90;;;;;;4983184;28;20548;-64
2021/07/22 04:28:15;;;;;;;3.35;2.45;;;19.40;99.90;;;;;;4994741;28;20042;-65
2021/07/22 04:30:43;;;;;;;2.13;1.75;;;19.40;99.90;;;;;;4984379;28;20386;-65
2021/07/22 04:33:14;;;;;;;2.13;1.75;;;19.40;99.90;;;;;;5003133;28;20085;-66
2021/07/22 04:36:00;;;;;;;2.13;2.00;;;19.40;99.90;;;;;;5000202;28;20116;-64
2021/07/22 04:38:48;;;;;;;3.35;2.45;;;19.50;99.90;;;;;;5003202;28;20041;-65
2021/07/22 04:41:36;;;;;;;2.45;2.25;;;19.50;99.90;;;;;;5001681;28;20064;-69
2021/07/22 04:44:21;;;;;;;4.28;1.73;;;19.50;99.90;;;;;;5000575;28;20060;-67
2021/07/22 04:47:11;;;;;;;2.05;1.85;;;19.50;99.90;;;;;;4992261;28;20058;-66
2021/07/22 04:50:04;;;;;;;2.17;1.60;;;19.60;99.90;;;;;;4985243;28;20046;-65
2021/07/22 04:52:53;;;;;;;3.03;1.80;;;19.50;99.90;;;;;;4980898;28;20092;-66
2021/07/22 04:55:31;;;;;;;2.13;1.50;;;19.60;99.90;;;;;;5001480;28;20046;-64
2021/07/22 04:58:00;;;;;;;8.10;2.00;;;19.60;99.90;;;;;;4983146;28;20137;-65
2021/07/22 05:00:31;;;;;;;2.90;2.45;;;19.60;99.90;;;;;;4986351;28;20061;-66
2021/07/22 05:02:59;;;;;;;4.45;1.80;;;19.70;99.90;;;;;;4994884;28;20181;-64
2021/07/22 05:05:29;;;;;;;;;;;19.70;99.90;;;;;;4997990;28;20049;-64
2021/07/22 05:08:14;;;;;;;2.85;2.47;;;19.70;99.90;;;;;;5003583;28;20351;-67
2021/07/22 05:10:48;;;;;;;2.05;1.83;;;19.70;99.90;;;;;;4985144;28;20046;-64
2021/07/22 05:13:25;;;;;;;2.45;2.25;;;19.70;99.90;;;;;;5001329;28;20048;-65
2021/07/22 05:16:07;;;;;;;5.38;2.65;;;19.80;99.90;;;;;;5002260;28;20048;-63
2021/07/22 05:18:47;;;;;;;2.50;1.90;;;19.80;99.90;;;;;;4984808;28;20157;-70
2021/07/22 05:21:28;;;;;;;3.83;1.83;;;19.80;99.90;;;;;;4995980;28;20046;-64
2021/07/22 05:24:19;;;;;;;;;;;19.80;99.90;;;;;;4984205;28;20069;-64
2021/07/22 05:27:15;;;;;;;5.55;4.68;;;19.90;99.90;;;;;;4981096;28;19972;-66
2021/07/22 05:29:54;;;;;;;4.72;3.03;;;19.90;99.90;;;;;;4997978;28;20160;-68
2021/07/22 05:32:59;;;;;;;4.55;3.65;;;19.90;99.90;;;;;;4990483;28;20092;-64
2021/07/22 05:35:46;;;;;;;5.00;4.28;;;19.90;99.90;;;;;;4985671;28;20046;-64
2021/07/22 05:38:35;;;;;;;4.68;2.92;;;19.90;99.90;;;;;;4980470;28;20054;-64
2021/07/22 05:41:05;;;;;;;3.05;2.13;;;19.90;99.90;;;;;;5000270;28;20140;-65
2021/07/22 05:43:32;;;;;;;2.42;1.90;;;20.00;99.90;;;;;;5000070;28;20042;-65
2021/07/22 05:45:59;;;;;;;3.50;3.13;;;19.90;99.90;;;;;;4997542;28;20049;-66
2021/07/22 05:48:26;;;;;;;3.03;2.70;;;20.00;99.90;;;;;;5000382;28;20053;-67
2021/07/22 05:50:53;;;;;;;3.03;1.83;;;20.00;99.90;;;;;;5004709;28;20510;-65
2021/07/22 05:53:20;;;;;;;3.88;1.65;;;20.00;99.90;;;;;;4998293;28;20045;-67
2021/07/22 05:55:47;;;;;;;3.38;2.53;;;20.00;99.90;;;;;;5001867;28;20495;-66
2021/07/22 05:58:14;;;;;;;2.53;1.67;;;20.00;99.90;;;;;;5003314;28;20049;-66
2021/07/22 06:00:41;;;;;;;3.22;1.88;;;20.00;99.90;;;;;;5003418;28;20372;-68
2021/07/22 06:03:08;;;;;;;2.22;1.95;;;20.00;99.90;;;;;;4986827;28;20129;-64
2021/07/22 06:05:35;;;;;;;2.67;2.30;;;20.10;99.90;;;;;;4998396;28;20054;-71
2021/07/22 06:08:03;;;;;;;3.72;2.25;;;20.10;99.90;;;;;;5001722;28;20077;-67
2021/07/22 06:10:30;;;;;;;4.47;2.20;;;20.10;99.90;;;;;;5002352;28;20140;-65
2021/07/22 06:12:58;;;;;;;2.80;1.83;;;20.10;99.90;;;;;;5003145;28;20042;-66
2021/07/22 06:15:25;;;;;;;3.35;2.20;;;20.20;99.90;;;;;;4994916;28;20112;-65
2021/07/22 06:17:52;;;;;;;1.60;1.40;;;20.20;99.90;;;;;;4999625;28;20050;-63
2021/07/22 06:20:19;;;;;;;3.60;2.42;;;20.20;99.90;;;;;;5001167;28;20141;-70
2021/07/22 06:22:46;;;;;;;2.78;2.58;;;20.20;99.90;;;;;;4998920;28;20411;-63
2021/07/22 06:25:14;;;;;;;2.08;1.83;;;20.20;99.90;;;;;;5002038;28;20058;-65
2021/07/22 06:27:43;;;;;;;1.70;1.30;;;20.20;99.90;;;;;;4997685;28;20123;-64
2021/07/22 06:30:11;;;;;;;2.58;1.80;;;20.30;99.90;;;;;;4996970;28;20100;-67
2021/07/22 06:32:38;;;;;;;5.22;2.72;;;20.30;99.90;;;;;;5001841;28;20041;-64
2021/07/22 06:35:06;;;;;;;2.15;1.95;;;20.30;99.90;;;;;;5000713;28;20462;-64
2021/07/22 06:37:46;;;;;;;3.30;2.13;;;20.30;99.90;;;;;;4999717;28;20053;-63
2021/07/22 06:40:21;;;;;;;3.55;2.33;;;20.40;99.90;;;;;;5001947;28;20053;-70
2021/07/22 06:42:48;;;;;;;2.17;1.83;;;20.40;99.90;;;;;;4997933;28;20054;-62
2021/07/22 06:45:15;;;;;;;2.15;1.92;;;20.50;99.90;;;;;;4982542;28;20053;-64
2021/07/22 06:47:42;;;;;;;2.10;1.35;;;20.40;99.90;;;;;;4995678;28;20422;-67
2021/07/22 06:50:10;;;;;;;4.45;2.03;;;20.50;99.90;;;;;;5002061;28;20053;-67
2021/07/22 06:52:37;;;;;;;2.72;1.70;;;20.50;99.90;;;;;;5001757;28;20042;-65
2021/07/22 06:55:05;;;;;;;2.22;2.03;;;20.50;99.90;;;;;;5004136;28;20145;-63
2021/07/22 06:57:33;;;;;;;1.90;1.55;;;20.50;99.90;;;;;;5001068;28;20128;-63
2021/07/22 07:00:00;;;;;;;2.60;2.00;;;20.50;99.90;;;;;;5001051;28;20478;-63
2021/07/22 07:02:28;;;;;;;3.58;2.97;;;20.50;99.90;;;;;;4998205;28;20045;-64
2021/07/22 07:04:55;;;;;;;2.72;1.90;;;20.60;99.90;;;;;;5000675;28;20120;-64
2021/07/22 07:07:21;;;;;;;2.00;1.90;;;20.60;99.90;;;;;;5000936;28;20049;-66
2021/07/22 07:09:48;;;;;;;2.78;2.03;;;20.60;99.90;;;;;;4998757;28;20053;-67
2021/07/22 07:12:15;;;;;;;2.08;1.88;;;20.60;99.90;;;;;;4999506;28;20046;-63
2021/07/22 07:14:43;;;;;;;2.10;1.90;;;20.60;99.90;;;;;;5003828;28;20049;-70
2021/07/22 07:17:10;;;;;;;2.13;1.80;;;20.50;99.90;;;;;;5003396;28;20432;-64
2021/07/22 07:19:37;;;;;;;2.33;1.88;;;20.60;99.90;;;;;;4998574;28;20497;-68
2021/07/22 07:22:04;;;;;;;3.13;2.20;;;20.60;99.90;;;;;;5001310;28;20530;-68
2021/07/22 07:24:31;;;;;;;3.35;2.22;;;20.70;99.90;;;;;;5002378;28;20065;-76
2021/07/22 07:26:58;;;;;;;2.25;2.05;;;20.70;99.90;;;;;;5004115;28;20046;-65
2021/07/22 07:29:25;;;;;;;1.98;1.77;;;20.80;99.90;;;;;;4997798;28;20161;-68
2021/07/22 07:31:58;;;;;;;2.65;1.67;;;20.90;99.90;;;;;;4999429;28;20045;-64
2021/07/22 07:34:25;;;;;;;3.13;2.72;;;20.90;99.90;;;;;;4997170;28;20057;-67
2021/07/22 07:36:53;;;;;;;4.82;2.85;;;20.90;99.90;;;;;;5000380;28;20046;-68
2021/07/22 07:39:20;;;;;;;4.75;2.38;;;20.90;99.90;;;;;;4997651;28;20274;-64
2021/07/22 07:41:47;;;;;;;3.15;2.53;;;20.90;99.90;;;;;;4999537;28;20066;-68
2021/07/22 07:44:14;;;;;;;2.80;2.15;;;20.90;99.90;;;;;;5006567;28;20052;-64
2021/07/22 07:46:41;;;;;;;3.47;2.75;;;20.90;99.90;;;;;;5003827;28;20058;-67
2021/07/22 07:49:08;;;;;;;3.03;2.70;;;20.90;99.90;;;;;;5006578;28;20085;-64
2021/07/22 07:51:35;;;;;;;5.68;3.13;;;21.00;99.90;;;;;;5003571;28;20100;-65
2021/07/22 07:54:02;;;;;;;2.47;2.28;;;21.00;99.90;;;;;;5001896;28;20052;-65
2021/07/22 07:56:29;;;;;;;3.47;2.72;;;21.10;99.90;;;;;;5007429;28;20070;-69
2021/07/22 07:58:56;;;;;;;3.72;2.38;;;21.00;99.90;;;;;;5004826;28;20495;-65
2021/07/22 08:01:27;;;;;;;3.28;2.90;;;21.00;99.90;;;;;;5001103;28;20053;-65
2021/07/22 08:03:55;;;;;;;3.33;2.47;;;20.90;99.90;;;;;;5003675;28;20050;-68
2021/07/22 08:06:22;;;;;;;5.22;2.78;;;20.80;99.90;;;;;;5002838;28;20104;-71
2021/07/22 08:08:49;;;;;;;3.67;2.40;;;20.70;99.90;;;;;;5003019;28;20068;-70
2021/07/22 08:11:18;;;;;;;3.00;2.60;;;20.70;99.90;;;;;;5001998;28;20056;-70
2021/07/22 08:13:45;;;;;;;4.63;3.38;;;20.80;99.90;;;;;;5001801;28;20077;-68
2021/07/22 08:16:18;;;;;;;2.80;2.50;;;20.90;99.90;;;;;;5003816;28;20376;-70
2021/07/22 08:18:49;;;;;;;3.13;2.83;;;20.90;99.90;;;;;;5004280;28;20062;-68
2021/07/22 08:21:16;;;;;;;3.40;2.67;;;21.00;99.90;;;;;;4996248;28;20050;-72
2021/07/22 08:23:43;;;;;;;3.42;3.10;;;20.90;99.90;;;;;;4999240;28;20049;-66
2021/07/22 08:26:10;;;;;;;3.38;3.08;;;21.10;99.90;;;;;;5002911;28;20149;-67
2021/07/22 08:28:38;;;;;;;7.43;4.45;;;21.10;99.90;;;;;;5006298;28;20046;-67
2021/07/22 08:31:05;;;;;;;4.40;3.38;;;21.10;99.90;;;;;;5003677;28;20042;-67
2021/07/22 08:33:31;;;;;;;3.45;3.15;;;21.10;99.90;;;;;;5004215;28;20116;-69
2021/07/22 08:35:59;;;;;;;5.20;3.75;;;21.20;99.90;;;;;;5002089;28;20380;-67
2021/07/22 08:38:25;;;;;;;6.28;3.22;;;21.20;99.90;;;;;;5005686;28;20054;-65
2021/07/22 08:40:53;;;;;;;4.13;3.38;;;21.20;99.90;;;;;;5000152;28;20049;-72
2021/07/22 08:43:21;;;;;;;3.47;2.97;;;21.20;99.90;;;;;;5002591;28;20423;-65
2021/07/22 08:45:48;;;;;;;3.80;3.05;;;21.20;99.90;;;;;;4986635;28;20038;-67
2021/07/22 08:48:16;;;;;;;4.50;3.72;;;21.30;99.90;;;;;;5004102;28;20116;-65
2021/07/22 08:50:45;;;;;;;3.45;2.85;;;21.30;99.90;;;;;;5003325;28;20057;-65
2021/07/22 08:53:14;;;;;;;3.73;3.30;;;21.20;99.90;;;;;;5002092;28;20049;-67
2021/07/22 08:55:48;;;;;;;6.25;3.80;;;21.10;99.90;;;;;;4996857;28;20436;-70
2021/07/22 08:58:15;;;;;;;3.50;3.08;;;21.00;99.90;;;;;;5000600;28;20658;-66
2021/07/22 09:00:42;;;;;;;4.32;3.92;;;21.00;99.90;;;;;;5001334;28;20535;-70
2021/07/22 09:03:12;;;;;;;3.92;3.22;;;21.10;99.90;;;;;;5004877;28;20096;-65
2021/07/22 09:05:42;;;;;;;3.92;3.33;;;21.00;99.90;;;;;;4993530;28;20668;-69
2021/07/22 09:08:09;;;;;;;5.55;3.80;;;21.10;99.90;;;;;;5003035;28;20683;-65
2021/07/22 09:10:36;;;;;;;8.48;3.92;;;21.30;99.90;;;;;;5001175;28;20112;-66
2021/07/22 09:13:03;;;;;;;3.50;2.80;;;21.30;99.90;;;;;;5006629;28;20069;-65
2021/07/22 09:15:34;;;;;;;3.63;3.17;;;21.30;99.90;;;;;;5004147;28;20049;-67
2021/07/22 09:18:21;;;;;;;5.00;2.80;;;21.40;99.90;;;;;;5003277;28;20065;-65
2021/07/22 09:20:49;;;;;;;4.65;3.67;;;21.50;99.90;;;;;;4999101;28;20081;-67
2021/07/22 09:23:22;;;;;;;3.15;2.85;;;21.60;99.90;;;;;;5003088;28;20076;-65
2021/07/22 09:25:50;;;;;;;4.35;2.95;;;21.80;99.90;;;;;;5002066;28;20052;-65
2021/07/22 09:28:22;;;;;;;3.38;2.67;;;21.80;99.90;;;;;;5005390;28;20054;-66
2021/07/22 09:31:00;;;;;;;3.67;2.90;;;22.00;99.90;;;;;;5003907;28;20042;-66
2021/07/22 09:33:31;;;;;;;3.35;2.50;;;22.00;99.90;;;;;;4998427;28;20088;-70
2021/07/22 09:35:58;;;;;;;3.35;2.45;;;22.00;99.90;;;;;;5011391;28;20053;-68
2021/07/22 09:38:27;;;;;;;5.10;2.65;;;22.00;99.90;;;;;;5001595;28;20647;-67
2021/07/22 09:40:55;;;;;;;3.35;3.08;;;22.00;99.90;;;;;;5004323;28;20038;-66
2021/07/22 09:43:39;;;;;;;4.30;2.42;;;22.20;99.90;;;;;;4999964;28;20053;-69
2021/07/22 09:46:07;;;;;;;4.97;2.72;;;22.30;99.90;;;;;;5003501;28;20050;-68
2021/07/22 09:48:34;;;;;;;4.70;3.35;;;22.40;99.90;;;;;;5002467;28;20046;-66
2021/07/22 09:51:01;;;;;;;3.45;2.97;;;22.20;99.90;;;;;;4985656;28;20078;-67
2021/07/22 09:53:28;;;;;;;2.78;2.58;;;22.20;99.90;;;;;;4996836;28;20041;-66
2021/07/22 09:55:56;;;;;;;5.95;2.65;;;22.20;99.90;;;;;;5002044;28;20062;-73
2021/07/22 09:58:24;;;;;;;7.05;3.35;;;22.40;99.90;;;;;;5001360;28;20108;-66
2021/07/22 10:00:54;;;;;;;3.55;3.25;;;22.30;99.90;;;;;;5003751;28;20107;-66
2021/07/22 10:03:21;;;;;;;;;;;22.40;99.90;;;;;;5002114;28;20046;-65
2021/07/22 10:06:05;;;;;;;4.70;3.40;;;22.40;99.90;;;;;;4984534;28;19925;-67
2021/07/22 10:08:34;;;;;;;3.65;3.30;;;22.30;99.90;;;;;;5000118;28;20046;-68
2021/07/22 10:11:04;;;;;;;3.65;3.17;;;22.40;99.90;;;;;;4998192;28;20042;-65
2021/07/22 10:13:35;;;;;;;3.50;2.58;;;22.50;99.90;;;;;;4996779;28;20046;-66
2021/07/22 10:16:08;;;;;;;2.72;2.50;;;22.60;99.90;;;;;;5003483;28;20108;-68
2021/07/22 10:18:40;;;;;;;2.90;2.55;;;22.70;99.90;;;;;;4998977;28;20109;-66
2021/07/22 10:21:07;;;;;;;2.80;2.50;;;22.70;99.90;;;;;;5013562;28;20468;-65
2021/07/22 10:23:35;;;;;;;2.50;2.28;;;22.60;99.90;;;;;;4997766;28;20107;-70
2021/07/22 10:26:02;;;;;;;2.13;1.90;;;22.60;99.90;;;;;;5003115;28;20260;-70
2021/07/22 10:28:29;;;;;;;2.72;2.30;;;22.60;99.90;;;;;;4999661;28;20049;-70
2021/07/22 10:30:57;;;;;;;2.83;2.28;;;22.70;99.90;;;;;;5001916;28;20081;-67
2021/07/22 10:33:25;;;;;;;3.88;2.45;;;22.70;99.90;;;;;;4997079;28;20061;-65
2021/07/22 10:35:53;;;;;;;2.25;2.05;;;22.80;99.90;;;;;;5003388;28;20127;-67
2021/07/22 10:38:21;;;;;;;1.95;1.85;;;22.80;99.90;;;;;;4997597;28;20046;-65
2021/07/22 10:40:54;;;;;;;5.05;2.38;;;22.80;99.90;;;;;;5001382;28;20050;-68
2021/07/22 10:46:08;;;;;;;2.85;2.65;;;22.90;99.90;;;;;;4999915;28;20056;-67
2021/07/22 10:48:36;;;;;;;4.72;2.78;;;23.10;99.90;;;;;;4999328;28;20108;-65
2021/07/22 10:51:06;;;;;;;4.85;2.60;;;23.00;99.90;;;;;;5000074;28;20044;-72
2021/07/22 10:53:39;;;;;;;2.92;2.38;;;23.20;99.90;;;;;;5000375;28;20595;-64
2021/07/22 10:56:07;;;;;;;4.25;2.70;;;23.30;99.90;;;;;;5001524;28;20049;-68
2021/07/22 10:58:34;;;;;;;2.78;2.42;;;23.40;99.90;;;;;;4999860;28;20038;-66
2021/07/22 11:01:03;;;;;;;3.72;2.58;;;23.50;99.90;;;;;;5000665;28;20078;-65
2021/07/22 11:03:36;;;;;;;2.63;2.33;;;23.50;99.90;;;;;;5001491;28;20061;-67
2021/07/22 11:06:14;;;;;;;3.33;2.47;;;23.50;99.90;;;;;;5008541;28;20067;-66
2021/07/22 11:08:42;;;;;;;6.35;2.67;;;23.70;99.90;;;;;;5002875;28;20133;-66
2021/07/22 11:11:14;;;;;;;2.10;1.90;;;23.50;99.90;;;;;;4999017;28;20484;-68
2021/07/22 11:13:46;;;;;;;3.95;2.63;;;23.70;99.90;;;;;;5000694;28;20513;-67
2021/07/22 11:16:49;;;;;;;3.53;2.97;;;23.70;99.90;;;;;;4990541;28;20066;-70
2021/07/22 11:19:14;;;;;;;2.88;2.67;;;23.80;99.90;;;;;;4997706;28;20480;-66
2021/07/22 11:21:49;;;;;;;2.85;2.63;;;24.00;99.90;;;;;;5001031;28;20058;-65
2021/07/22 11:24:25;;;;;;;2.60;1.98;;;24.10;99.90;;;;;;5001188;28;20064;-66
2021/07/22 11:26:54;;;;;;;2.38;2.00;;;24.10;99.90;;;;;;5004466;28;20054;-67
2021/07/22 11:29:22;;;;;;;2.50;2.00;;;24.20;99.90;;;;;;4999444;28;20065;-67
2021/07/22 11:31:54;;;;;;;2.72;2.10;;;24.30;99.90;;;;;;4997956;28;20648;-67
2021/07/22 11:34:31;;;;;;;7.03;1.85;;;24.40;99.90;;;;;;5001259;28;20582;-65
2021/07/22 11:36:59;;;;;;;2.60;1.92;;;24.20;99.90;;;;;;5000072;28;20054;-67
2021/07/22 11:39:43;;;;;;;5.00;2.45;;;24.20;99.90;;;;;;4996298;28;20091;-70
2021/07/22 11:42:12;;;;;;;2.58;2.30;;;24.10;99.90;;;;;;5000305;28;20073;-65
2021/07/22 11:44:40;;;;;;;2.92;2.50;;;24.20;99.90;;;;;;4998094;28;20057;-72
2021/07/22 11:47:15;;;;;;;3.17;1.92;;;24.10;99.90;;;;;;5000207;28;20049;-65
2021/07/22 11:49:44;;;;;;;2.08;1.80;;;24.00;99.90;;;;;;5006167;28;20054;-68
2021/07/22 11:52:11;;;;;;;1.63;1.52;;;24.10;99.90;;;;;;4984421;28;20093;-66
2021/07/22 11:54:38;;;;;;;5.75;2.63;;;24.20;99.90;;;;;;4998529;28;20050;-70
2021/07/22 11:57:05;;;;;;;14.88;2.85;;;24.20;99.90;;;;;;4998206;28;20523;-69
2021/07/22 11:59:34;;;;;;;2.45;2.25;;;24.30;99.90;;;;;;4994625;28;20053;-67
2021/07/22 12:02:02;;;;;;;3.15;2.33;;;24.20;99.90;;;;;;5002657;28;20052;-67
2021/07/22 12:04:32;;;;;;;2.53;2.05;;;24.10;99.90;;;;;;4999393;28;20396;-66
2021/07/22 12:07:02;;;;;;;3.15;2.50;;;24.10;99.90;;;;;;4998873;28;20077;-69
2021/07/22 12:09:30;;;;;;;;;;;24.20;99.90;;;;;;5000747;28;20068;-67
2021/07/22 12:12:02;;;;;;;3.03;2.45;;;24.20;99.90;;;;;;5002209;28;19929;-65
2021/07/22 12:14:37;;;;;;;4.30;2.90;;;24.20;99.90;;;;;;4996803;28;20053;-65
2021/07/22 12:17:08;;;;;;;4.22;2.90;;;24.30;99.90;;;;;;4997946;28;20052;-66
2021/07/22 12:19:38;;;;;;;3.88;2.70;;;24.50;99.90;;;;;;5001000;28;20081;-67
2021/07/22 12:22:29;;;;;;;3.70;2.45;;;24.70;99.90;;;;;;4999817;28;20054;-68
2021/07/22 12:25:11;;;;;;;3.38;2.75;;;24.90;99.90;;;;;;4996063;28;20050;-67
2021/07/22 12:27:52;;;;;;;4.20;3.00;;;25.10;99.90;;;;;;5001276;28;21897;-70
2021/07/22 12:30:22;;;;;;;5.20;3.08;;;25.20;99.90;;;;;;4995455;28;20034;-70
2021/07/22 12:32:57;;;;;;;5.00;2.85;;;25.40;99.90;;;;;;5005993;28;20462;-68
2021/07/22 12:35:38;;;;;;;4.28;2.55;;;25.30;99.40;;;;;;5002589;28;20050;-67
2021/07/22 12:38:16;;;;;;;4.78;2.50;;;25.30;99.90;;;;;;5005404;28;20045;-68
2021/07/22 12:40:45;;;;;;;3.70;2.45;;;25.50;99.90;;;;;;5003654;28;20053;-67
2021/07/22 12:43:20;;;;;;;3.42;2.95;;;25.60;99.20;;;;;;5000543;28;20406;-68
2021/07/22 12:45:52;;;;;;;3.15;2.70;;;25.40;99.30;;;;;;5001830;28;20077;-66
2021/07/22 12:48:35;;;;;;;3.00;2.67;;;25.40;99.20;;;;;;5005030;28;20049;-67
2021/07/22 12:51:20;;;;;;;2.50;2.30;;;25.50;99.90;;;;;;5004687;28;20046;-67
2021/07/22 12:53:49;;;;;;;2.78;2.55;;;25.50;99.90;;;;;;5003150;28;20057;-65
2021/07/22 12:56:19;;;;;;;3.38;2.88;;;25.70;99.90;;;;;;5005705;28;20056;-66
2021/07/22 12:58:50;;;;;;;3.40;2.35;;;25.70;99.20;;;;;;4999412;28;20667;-69
2021/07/22 13:01:20;;;;;;;3.47;2.72;;;25.90;99.50;;;;;;5001454;28;20053;-66
2021/07/22 13:03:49;;;;;;;5.78;2.95;;;26.00;99.60;;;;;;5001458;28;20136;-68
2021/07/22 13:06:19;;;;;;;7.32;3.00;;;26.00;99.70;;;;;;5004132;28;20080;-69
2021/07/22 13:08:47;;;;;;;3.53;2.25;;;26.10;99.70;;;;;;5002952;28;20076;-72
2021/07/22 13:11:15;;;;;;;2.60;2.40;;;26.10;99.90;;;;;;4997134;28;20050;-70